Archival Weather

DuPage County

West Chicago, Illinois (KDPA)

Report from: Thursday, December 7, 2023 1:52 PM CST
Current time: Wednesday, April 24, 2024 12:59 PM CDT

Current weather – Weather history – Daily summaries
Weather forecast

Temperature10.0°C (50.0°F)
Wind chill8.0°C (46.3°F)
Dew point2.8°C (37.0°F)
Winds 8 kts (4.1 m/s, 9.2 mph) South (180°)
Visibility10 mi. (16.1 km)
Clouds Sky clear
Altimeter29.78 in.Hg (1008 mB)
Relative humidity61 %
Density altitude-332 ft. (-101 m)
Sea-level pressure100.9 kPa (1009 mB, 29.79 in.Hg)
Remarks Automated weather observing station with precipitation discriminator
Flight conditions Visual Meteorological Conditions
Raw dataKDPA 071952Z 18008KT 10SM CLR 10/03 A2978 RMK AO2 SLP087 T01000028
An error has occurred. This application may no longer respond until reloaded. Reload 🗙